Time;durP1;ratioP1;P1;durP2;ratioP2;P2;SDS_P1;SDS_P2;PMS_P1;PMS_P2;Temp;Humidity;BMP_temperature;BMP_pressure;BME280_temperature;BME280_humidity;BME280_pressure;Samples;Min_cycle;Max_cycle;Signal;HPM_P1;HPM_P2
2022/01/08 00:00:09;;;;;;;1.83;1.63;;;;;;;;;;6189023;23;20201;-84
2022/01/08 00:02:36;;;;;;;1.77;1.67;;;;;;;;;;6188888;23;20184;-83
2022/01/08 00:05:04;;;;;;;1.90;1.70;;;;;;;;;;6189925;23;20205;-84
2022/01/08 00:07:34;;;;;;;2.37;1.60;;;;;;;;;;6190552;23;20237;-84
2022/01/08 00:10:01;;;;;;;2.00;1.60;;;;;;;;;;6190346;23;20177;-84
2022/01/08 00:12:30;;;;;;;1.50;1.40;;;;;;;;;;6189505;23;20177;-84
2022/01/08 00:14:57;;;;;;;1.60;1.50;;;;;;;;;;6191001;23;20178;-84
2022/01/08 00:17:25;;;;;;;1.70;1.60;;;;;;;;;;6203601;23;20194;-84
2022/01/08 00:19:52;;;;;;;2.80;1.60;;;;;;;;;;6205614;23;20226;-83
2022/01/08 00:22:20;;;;;;;1.93;1.30;;;;;;;;;;6191274;23;20174;-84
2022/01/08 00:24:52;;;;;;;1.40;1.30;;;;;;;;;;6187707;23;20174;-84
2022/01/08 00:27:19;;;;;;;1.53;1.43;;;;;;;;;;6188868;23;20194;-84
2022/01/08 00:29:48;;;;;;;1.50;1.40;;;;;;;;;;6188761;23;20166;-83
2022/01/08 00:32:15;;;;;;;1.60;1.50;;;;;;;;;;6187464;23;20185;-84
2022/01/08 00:34:43;;;;;;;1.67;1.57;;;;;;;;;;6188215;23;20189;-84
2022/01/08 00:37:10;;;;;;;2.07;1.70;;;;;;;;;;6187609;23;20201;-84
2022/01/08 00:39:39;;;;;;;1.60;1.50;;;;;;;;;;6187905;23;20173;-85
2022/01/08 00:42:06;;;;;;;1.60;1.50;;;;;;;;;;6187510;23;20173;-84
2022/01/08 00:44:33;;;;;;;1.93;1.60;;;;;;;;;;6187374;23;20181;-84
2022/01/08 00:47:02;;;;;;;1.50;1.40;;;;;;;;;;6187648;23;20272;-84
2022/01/08 00:49:29;;;;;;;1.67;1.43;;;;;;;;;;6188139;23;20181;-83
2022/01/08 00:51:56;;;;;;;1.70;1.60;;;;;;;;;;6188368;23;20201;-84
2022/01/08 00:54:24;;;;;;;2.83;1.40;;;;;;;;;;6187433;23;20174;-82
2022/01/08 00:56:51;;;;;;;1.60;1.50;;;;;;;;;;6187854;23;20187;-83
2022/01/08 00:59:18;;;;;;;3.23;1.50;;;;;;;;;;6187425;23;20177;-83
2022/01/08 01:01:46;;;;;;;1.63;1.50;;;;;;;;;;6187069;23;20166;-84
2022/01/08 01:04:14;;;;;;;2.47;1.70;;;;;;;;;;6188608;23;20177;-83
2022/01/08 01:06:42;;;;;;;1.50;1.40;;;;;;;;;;6187624;23;20260;-84
2022/01/08 01:09:09;;;;;;;1.60;1.50;;;;;;;;;;6187238;23;20250;-84
2022/01/08 01:11:36;;;;;;;1.70;1.60;;;;;;;;;;6187772;23;20174;-84
2022/01/08 01:14:06;;;;;;;2.70;1.57;;;;;;;;;;6188501;23;20232;-84
2022/01/08 01:16:33;;;;;;;1.70;1.60;;;;;;;;;;6190216;23;20170;-85
2022/01/08 01:19:03;;;;;;;2.23;1.50;;;;;;;;;;6190222;23;20185;-86
2022/01/08 01:21:31;;;;;;;2.00;1.80;;;;;;;;;;6191493;23;20174;-85
2022/01/08 01:24:06;;;;;;;1.87;1.70;;;;;;;;;;6192280;23;20174;-85
2022/01/08 01:26:34;;;;;;;2.00;1.80;;;;;;;;;;6191593;23;20192;-86
2022/01/08 01:29:22;;;;;;;1.67;1.57;;;;;;;;;;6190213;23;20233;-87
2022/01/08 01:43:16;;;;;;;2.67;1.60;;;;;;;;;;6192337;23;20153;-85
2022/01/08 01:48:26;;;;;;;1.80;1.70;;;;;;;;;;6192528;23;20237;-85
2022/01/08 01:50:54;;;;;;;1.80;1.70;;;;;;;;;;6190089;23;20177;-85
2022/01/08 01:53:22;;;;;;;3.00;1.70;;;;;;;;;;6192174;23;20193;-85
2022/01/08 01:55:51;;;;;;;2.20;1.80;;;;;;;;;;6193244;23;20169;-84
2022/01/08 01:58:19;;;;;;;2.20;2.00;;;;;;;;;;6192887;23;20197;-85
2022/01/08 02:00:47;;;;;;;2.07;1.87;;;;;;;;;;6191921;23;20173;-85
2022/01/08 02:03:14;;;;;;;1.90;1.70;;;;;;;;;;6194155;23;20209;-85
2022/01/08 02:05:41;;;;;;;1.87;1.63;;;;;;;;;;6193240;23;20194;-85
2022/01/08 02:08:12;;;;;;;2.07;1.80;;;;;;;;;;6193137;23;20218;-86
2022/01/08 02:10:41;;;;;;;3.07;1.80;;;;;;;;;;6193770;23;20181;-86
2022/01/08 02:13:08;;;;;;;1.60;1.50;;;;;;;;;;6193919;23;20220;-85
2022/01/08 02:15:36;;;;;;;2.90;1.80;;;;;;;;;;6194342;23;20170;-86
2022/01/08 02:18:04;;;;;;;1.70;1.53;;;;;;;;;;6194535;23;20192;-87
2022/01/08 02:20:33;;;;;;;1.73;1.50;;;;;;;;;;6193687;23;20178;-84
2022/01/08 02:23:00;;;;;;;2.27;1.70;;;;;;;;;;6194926;23;20228;-85
2022/01/08 02:25:27;;;;;;;1.70;1.57;;;;;;;;;;6195283;23;20174;-85
2022/01/08 02:27:54;;;;;;;2.13;1.70;;;;;;;;;;6193879;23;20221;-85
2022/01/08 02:30:22;;;;;;;1.70;1.60;;;;;;;;;;6193666;23;20178;-85
2022/01/08 02:32:49;;;;;;;3.40;1.57;;;;;;;;;;6193009;23;20228;-85
2022/01/08 02:35:21;;;;;;;1.73;1.63;;;;;;;;;;6194737;23;20170;-86
2022/01/08 02:37:50;;;;;;;2.87;1.83;;;;;;;;;;6195128;23;20190;-84
2022/01/08 02:40:19;;;;;;;2.27;1.53;;;;;;;;;;6194666;23;20170;-85
2022/01/08 02:42:52;;;;;;;2.00;1.80;;;;;;;;;;6193656;23;20249;-86
2022/01/08 02:45:20;;;;;;;1.50;1.37;;;;;;;;;;6195381;23;20197;-86
2022/01/08 02:47:47;;;;;;;1.60;1.50;;;;;;;;;;6193945;23;20209;-85
2022/01/08 02:50:15;;;;;;;1.50;1.40;;;;;;;;;;6193967;23;20197;-85
2022/01/08 02:52:43;;;;;;;2.03;1.60;;;;;;;;;;6193427;23;20177;-85
2022/01/08 02:55:12;;;;;;;1.60;1.50;;;;;;;;;;6195226;23;20174;-85
2022/01/08 02:57:40;;;;;;;1.70;1.30;;;;;;;;;;6194366;23;20204;-86
2022/01/08 03:00:08;;;;;;;1.50;1.40;;;;;;;;;;6194534;23;20174;-86
2022/01/08 03:02:36;;;;;;;2.23;1.50;;;;;;;;;;6194265;23;20181;-86
2022/01/08 03:05:03;;;;;;;2.10;1.60;;;;;;;;;;6194489;23;20272;-86
2022/01/08 03:07:30;;;;;;;1.50;1.40;;;;;;;;;;6194293;23;20225;-86
2022/01/08 03:09:58;;;;;;;1.83;1.50;;;;;;;;;;6194915;23;20174;-86
2022/01/08 03:12:28;;;;;;;2.27;1.50;;;;;;;;;;6194074;23;20178;-86
2022/01/08 03:14:55;;;;;;;1.63;1.53;;;;;;;;;;6196022;23;20170;-86
2022/01/08 03:17:23;;;;;;;2.07;1.90;;;;;;;;;;6194908;23;20189;-85
2022/01/08 03:19:54;;;;;;;1.50;1.40;;;;;;;;;;6196572;23;20201;-86
2022/01/08 03:22:23;;;;;;;3.17;1.80;;;;;;;;;;6194512;23;20550;-85
2022/01/08 03:24:50;;;;;;;2.53;2.10;;;;;;;;;;6196143;23;20193;-86
2022/01/08 03:27:17;;;;;;;2.50;1.90;;;;;;;;;;6197289;23;20255;-85
2022/01/08 03:29:46;;;;;;;1.80;1.70;;;;;;;;;;6202883;23;20249;-86
2022/01/08 03:32:14;;;;;;;3.87;2.10;;;;;;;;;;6206745;23;20181;-86
2022/01/08 03:34:41;;;;;;;2.30;2.07;;;;;;;;;;6205031;23;20170;-84
2022/01/08 03:37:08;;;;;;;2.10;1.90;;;;;;;;;;6188531;23;20295;-84
2022/01/08 03:39:35;;;;;;;2.33;2.13;;;;;;;;;;6156154;23;20186;-84
2022/01/08 03:42:03;;;;;;;3.43;2.23;;;;;;;;;;6161640;23;20174;-86
2022/01/08 03:44:30;;;;;;;2.57;2.27;;;;;;;;;;6163035;23;20225;-84
2022/01/08 03:47:21;;;;;;;3.60;2.37;;;;;;;;;;6155431;23;20194;-84
2022/01/08 03:49:46;;;;;;;2.53;2.33;;;;;;;;;;6154869;23;20238;-83
2022/01/08 03:52:13;;;;;;;2.90;2.70;;;;;;;;;;6161433;23;20185;-85
2022/01/08 03:54:41;;;;;;;2.60;2.40;;;;;;;;;;6167458;23;20230;-84
2022/01/08 03:57:08;;;;;;;2.47;2.27;;;;;;;;;;6159834;23;20187;-83
2022/01/08 03:59:35;;;;;;;2.50;2.30;;;;;;;;;;6157443;23;20184;-85
2022/01/08 04:02:04;;;;;;;2.67;2.47;;;;;;;;;;6154571;23;20178;-84
2022/01/08 04:04:32;;;;;;;3.23;2.77;;;;;;;;;;6155135;23;20171;-84
2022/01/08 04:06:59;;;;;;;2.63;2.43;;;;;;;;;;6155983;23;20190;-84
2022/01/08 04:09:26;;;;;;;2.80;2.60;;;;;;;;;;6155245;23;20194;-86
2022/01/08 04:11:55;;;;;;;2.67;2.47;;;;;;;;;;6180375;23;20170;-86
2022/01/08 04:14:22;;;;;;;2.70;2.50;;;;;;;;;;6181106;23;20151;-87
2022/01/08 04:16:52;;;;;;;2.70;2.30;;;;;;;;;;6179051;23;20185;-86
2022/01/08 04:19:21;;;;;;;2.93;2.37;;;;;;;;;;6181190;23;20158;-87
2022/01/08 04:22:02;;;;;;;2.33;2.10;;;;;;;;;;6168033;23;20170;-85
2022/01/08 04:24:29;;;;;;;3.17;2.40;;;;;;;;;;6160826;23;20166;-84
2022/01/08 04:26:57;;;;;;;2.23;2.07;;;;;;;;;;6160463;23;20191;-84
2022/01/08 04:29:24;;;;;;;2.90;2.07;;;;;;;;;;6160463;23;20175;-84
2022/01/08 04:31:51;;;;;;;2.20;2.00;;;;;;;;;;6159944;23;20174;-81
2022/01/08 04:34:18;;;;;;;2.40;2.20;;;;;;;;;;6160636;23;20201;-84
2022/01/08 04:36:50;;;;;;;2.30;2.10;;;;;;;;;;6160433;23;20175;-84
2022/01/08 04:39:17;;;;;;;3.37;2.63;;;;;;;;;;6160471;23;20179;-85
2022/01/08 04:41:45;;;;;;;2.30;2.10;;;;;;;;;;6157275;23;20174;-84
2022/01/08 04:44:12;;;;;;;2.60;2.10;;;;;;;;;;6159981;23;20174;-84
2022/01/08 04:46:41;;;;;;;2.40;2.20;;;;;;;;;;6160268;23;20218;-84
2022/01/08 04:49:08;;;;;;;2.50;2.30;;;;;;;;;;6162653;23;20174;-83
2022/01/08 04:51:35;;;;;;;2.47;2.27;;;;;;;;;;6164108;23;20645;-84
2022/01/08 04:54:04;;;;;;;2.60;2.40;;;;;;;;;;6162027;23;20174;-83
2022/01/08 04:56:31;;;;;;;3.07;2.13;;;;;;;;;;6161797;23;20194;-83
2022/01/08 04:58:59;;;;;;;2.57;2.37;;;;;;;;;;6160245;23;20195;-84
2022/01/08 05:01:26;;;;;;;2.80;2.60;;;;;;;;;;6160592;23;20221;-85
2022/01/08 05:03:53;;;;;;;2.70;2.50;;;;;;;;;;6160738;23;20175;-83
2022/01/08 05:06:20;;;;;;;3.10;2.80;;;;;;;;;;6159874;23;20221;-84
2022/01/08 05:08:48;;;;;;;3.60;3.23;;;;;;;;;;6159661;23;20202;-83
2022/01/08 05:11:17;;;;;;;3.00;2.60;;;;;;;;;;6159551;23;20175;-83
2022/01/08 05:13:45;;;;;;;2.90;2.70;;;;;;;;;;6160494;23;20181;-83
2022/01/08 05:16:12;;;;;;;3.77;3.10;;;;;;;;;;6160123;23;20171;-83
2022/01/08 05:18:39;;;;;;;4.77;3.40;;;;;;;;;;6160603;23;20222;-82
2022/01/08 05:21:17;;;;;;;3.57;3.17;;;;;;;;;;6161898;23;20237;-83
2022/01/08 05:23:44;;;;;;;3.37;3.07;;;;;;;;;;6160632;23;20167;-82
2022/01/08 05:26:11;;;;;;;3.67;3.30;;;;;;;;;;6164361;23;20178;-83
2022/01/08 05:28:40;;;;;;;3.30;3.00;;;;;;;;;;6159377;23;20245;-83
2022/01/08 05:31:07;;;;;;;3.23;2.93;;;;;;;;;;6153849;23;20202;-83
2022/01/08 05:33:34;;;;;;;3.57;2.97;;;;;;;;;;6158454;23;20599;-83
2022/01/08 05:36:02;;;;;;;3.37;2.53;;;;;;;;;;6158758;23;20178;-83
2022/01/08 05:38:29;;;;;;;3.07;2.47;;;;;;;;;;6158388;23;20207;-83
2022/01/08 05:40:57;;;;;;;2.30;2.10;;;;;;;;;;6158362;23;20234;-83
2022/01/08 05:43:24;;;;;;;2.53;1.90;;;;;;;;;;6159505;23;20197;-83
2022/01/08 05:45:52;;;;;;;2.10;1.90;;;;;;;;;;6159247;23;20179;-84
2022/01/08 05:48:21;;;;;;;1.60;1.50;;;;;;;;;;6159461;23;20195;-83
2022/01/08 05:50:49;;;;;;;1.60;1.40;;;;;;;;;;6158410;23;20187;-84
2022/01/08 05:53:17;;;;;;;1.40;1.30;;;;;;;;;;6159754;23;20170;-83
2022/01/08 05:55:44;;;;;;;1.70;1.60;;;;;;;;;;6160151;23;20296;-84
2022/01/08 05:58:11;;;;;;;1.53;1.43;;;;;;;;;;6160652;23;20242;-81
2022/01/08 06:00:38;;;;;;;1.60;1.50;;;;;;;;;;6159540;23;20230;-84
2022/01/08 06:03:10;;;;;;;2.17;1.73;;;;;;;;;;6160764;23;20175;-83
2022/01/08 06:05:37;;;;;;;1.60;1.50;;;;;;;;;;6160970;23;20229;-83
2022/01/08 06:08:05;;;;;;;1.50;1.33;;;;;;;;;;6158818;23;20198;-83
2022/01/08 06:10:40;;;;;;;1.30;1.30;;;;;;;;;;6160481;23;20234;-80
2022/01/08 06:13:07;;;;;;;1.40;1.30;;;;;;;;;;6159342;23;20235;-83
2022/01/08 06:15:35;;;;;;;1.50;1.40;;;;;;;;;;6160114;23;20226;-81
2022/01/08 06:18:02;;;;;;;1.60;1.50;;;;;;;;;;6159131;23;20191;-82
2022/01/08 06:20:31;;;;;;;1.20;1.20;;;;;;;;;;6158695;23;20198;-84
2022/01/08 06:22:58;;;;;;;1.70;1.60;;;;;;;;;;6160923;23;20174;-84
2022/01/08 06:25:26;;;;;;;1.70;1.60;;;;;;;;;;6161005;23;20221;-84
2022/01/08 06:27:54;;;;;;;1.60;1.50;;;;;;;;;;6162099;23;20526;-84
2022/01/08 06:30:21;;;;;;;1.70;1.60;;;;;;;;;;6162229;23;20179;-84
2022/01/08 06:32:50;;;;;;;1.83;1.57;;;;;;;;;;6160115;23;20170;-84
2022/01/08 06:35:17;;;;;;;1.50;1.40;;;;;;;;;;6161010;23;20189;-84
2022/01/08 06:37:46;;;;;;;1.87;1.70;;;;;;;;;;6162491;23;20245;-83
2022/01/08 06:40:14;;;;;;;1.60;1.50;;;;;;;;;;6161566;23;20174;-85
2022/01/08 06:42:41;;;;;;;2.00;1.70;;;;;;;;;;6162315;23;20225;-84
2022/01/08 06:45:09;;;;;;;2.57;1.80;;;;;;;;;;6178495;23;20174;-84
2022/01/08 06:47:36;;;;;;;1.87;1.67;;;;;;;;;;6180639;23;20254;-86
2022/01/08 06:50:04;;;;;;;2.80;1.67;;;;;;;;;;6177216;23;20175;-84
2022/01/08 06:52:33;;;;;;;1.97;1.87;;;;;;;;;;6171195;23;20229;-85
2022/01/08 06:55:02;;;;;;;1.93;1.80;;;;;;;;;;6175703;23;20174;-85
2022/01/08 06:57:29;;;;;;;2.43;1.77;;;;;;;;;;6174141;23;20191;-84
2022/01/08 06:59:57;;;;;;;1.90;1.80;;;;;;;;;;6173082;23;20174;-86
2022/01/08 07:02:24;;;;;;;2.13;1.70;;;;;;;;;;6161539;23;20249;-84
2022/01/08 07:04:51;;;;;;;2.10;1.90;;;;;;;;;;6163273;23;20184;-84
2022/01/08 07:07:19;;;;;;;1.80;1.70;;;;;;;;;;6160621;23;20210;-83
2022/01/08 07:09:46;;;;;;;2.10;2.00;;;;;;;;;;6157926;23;20170;-84
2022/01/08 07:12:15;;;;;;;2.70;2.20;;;;;;;;;;6158129;23;20193;-84
2022/01/08 07:14:42;;;;;;;2.10;1.90;;;;;;;;;;6158348;23;20175;-83
2022/01/08 07:17:10;;;;;;;2.40;2.00;;;;;;;;;;6159528;23;20197;-84
2022/01/08 07:19:37;;;;;;;2.33;2.10;;;;;;;;;;6159077;23;20171;-84
2022/01/08 07:22:04;;;;;;;3.37;2.47;;;;;;;;;;6158062;23;20198;-84
2022/01/08 07:24:32;;;;;;;2.63;2.43;;;;;;;;;;6158932;23;20174;-84
2022/01/08 07:26:59;;;;;;;3.77;3.00;;;;;;;;;;6159799;23;20205;-84
2022/01/08 07:29:28;;;;;;;2.87;2.60;;;;;;;;;;6159979;23;20178;-84
2022/01/08 07:31:55;;;;;;;4.23;3.27;;;;;;;;;;6159294;23;20175;-84
2022/01/08 07:34:24;;;;;;;3.70;3.40;;;;;;;;;;6158936;23;20175;-83
2022/01/08 07:36:53;;;;;;;3.90;3.60;;;;;;;;;;6159602;23;20221;-84
2022/01/08 07:39:20;;;;;;;4.73;3.73;;;;;;;;;;6159838;23;20218;-83
2022/01/08 07:41:48;;;;;;;5.20;2.83;;;;;;;;;;6158493;23;20198;-84
2022/01/08 07:44:15;;;;;;;4.10;2.90;;;;;;;;;;6159294;23;20233;-81
2022/01/08 07:46:44;;;;;;;2.80;2.60;;;;;;;;;;6158388;23;20176;-84
2022/01/08 07:49:11;;;;;;;4.03;3.17;;;;;;;;;;6158799;23;20218;-83
2022/01/08 07:51:42;;;;;;;5.60;3.37;;;;;;;;;;6158068;23;20175;-82
2022/01/08 07:54:10;;;;;;;4.60;3.10;;;;;;;;;;6158683;23;20171;-83
2022/01/08 07:56:37;;;;;;;4.83;3.50;;;;;;;;;;6159749;23;20194;-84
2022/01/08 07:59:04;;;;;;;4.47;3.50;;;;;;;;;;6159022;23;20253;-84
2022/01/08 08:01:32;;;;;;;4.73;3.30;;;;;;;;;;6158841;23;20198;-81
2022/01/08 08:04:00;;;;;;;6.03;3.17;;;;;;;;;;6159296;23;20205;-84
2022/01/08 08:06:32;;;;;;;4.53;3.27;;;;;;;;;;6158645;23;20486;-84
2022/01/08 08:08:59;;;;;;;4.10;3.33;;;;;;;;;;6160508;23;20194;-82
2022/01/08 08:11:27;;;;;;;4.70;3.30;;;;;;;;;;6159462;23;20222;-84
2022/01/08 08:14:00;;;;;;;4.67;3.23;;;;;;;;;;6162808;23;20171;-88
2022/01/08 08:16:29;;;;;;;4.17;3.50;;;;;;;;;;6161038;23;20578;-85
2022/01/08 08:18:56;;;;;;;3.90;3.17;;;;;;;;;;6163300;23;20198;-84
2022/01/08 08:21:32;;;;;;;3.60;2.87;;;;;;;;;;6162028;23;20186;-85
2022/01/08 08:24:03;;;;;;;3.90;2.60;;;;;;;;;;6161625;23;20162;-84
2022/01/08 08:26:30;;;;;;;3.87;2.43;;;;;;;;;;6164289;23;20233;-85
2022/01/08 08:28:58;;;;;;;2.93;2.63;;;;;;;;;;6164723;23;20194;-85
2022/01/08 08:31:25;;;;;;;3.47;2.17;;;;;;;;;;6163313;23;20174;-85
2022/01/08 08:33:54;;;;;;;3.17;2.20;;;;;;;;;;6163058;23;20175;-85
2022/01/08 08:36:25;;;;;;;3.57;1.77;;;;;;;;;;6164186;23;20178;-85
2022/01/08 08:38:53;;;;;;;2.07;1.90;;;;;;;;;;6161255;23;20198;-83
2022/01/08 08:41:21;;;;;;;2.20;2.00;;;;;;;;;;6159256;23;20249;-84
2022/01/08 08:43:48;;;;;;;3.23;2.07;;;;;;;;;;6158977;23;20181;-84
2022/01/08 08:46:18;;;;;;;3.37;2.33;;;;;;;;;;6159699;23;20182;-82
2022/01/08 08:48:45;;;;;;;2.67;1.87;;;;;;;;;;6160426;23;20201;-82
2022/01/08 08:51:13;;;;;;;4.20;1.80;;;;;;;;;;6158786;23;20175;-84
2022/01/08 08:53:44;;;;;;;1.93;1.60;;;;;;;;;;6160653;23;20175;-84
2022/01/08 08:56:14;;;;;;;1.93;1.73;;;;;;;;;;6160988;23;20182;-84
2022/01/08 08:58:42;;;;;;;3.57;2.10;;;;;;;;;;6161425;23;20190;-84
2022/01/08 09:01:11;;;;;;;2.43;2.03;;;;;;;;;;6161213;23;20178;-86
2022/01/08 09:03:41;;;;;;;2.40;1.80;;;;;;;;;;6160962;23;20229;-85
2022/01/08 09:06:11;;;;;;;3.23;2.10;;;;;;;;;;6156350;23;20174;-86
2022/01/08 09:08:52;;;;;;;3.90;1.97;;;;;;;;;;6156635;23;20194;-87
2022/01/08 09:11:22;;;;;;;3.77;2.37;;;;;;;;;;6156556;23;20173;-86
2022/01/08 09:13:50;;;;;;;3.37;2.40;;;;;;;;;;6157875;23;20173;-83
2022/01/08 09:16:19;;;;;;;3.43;2.00;;;;;;;;;;6160998;23;20174;-85
2022/01/08 09:18:46;;;;;;;2.37;2.10;;;;;;;;;;6160837;23;20197;-85
2022/01/08 09:21:14;;;;;;;3.30;2.30;;;;;;;;;;6159326;23;20182;-86
2022/01/08 09:26:26;;;;;;;2.87;2.00;;;;;;;;;;6158636;23;20179;-83
2022/01/08 09:29:13;;;;;;;;;;;;;;;;;;;;;
2022/01/08 09:31:41;;;;;;;2.83;2.20;;;;;;;;;;6161032;23;20175;-87
2022/01/08 09:34:09;;;;;;;2.87;2.03;;;;;;;;;;6159534;23;20233;-84
2022/01/08 09:36:37;;;;;;;3.03;2.23;;;;;;;;;;6161384;23;20186;-84
2022/01/08 09:39:06;;;;;;;4.70;2.60;;;;;;;;;;6179942;23;20271;-88
2022/01/08 09:41:42;;;;;;;4.77;2.90;;;;;;;;;;6183322;23;20181;-90
2022/01/08 09:44:10;;;;;;;4.97;3.93;;;;;;;;;;6183881;23;20166;-89
2022/01/08 09:46:41;;;;;;;3.70;3.10;;;;;;;;;;6185468;23;20232;-89
2022/01/08 09:49:11;;;;;;;4.27;2.30;;;;;;;;;;6162711;23;20260;-90
2022/01/08 09:54:30;;;;;;;2.60;2.40;;;;;;;;;;6150229;23;20175;-88
2022/01/08 09:57:03;;;;;;;3.37;2.77;;;;;;;;;;6163212;23;20447;-90
2022/01/08 09:59:40;;;;;;;10.60;7.40;;;;;;;;;;6139292;23;20167;-90
2022/01/08 10:02:09;;;;;;;3.07;2.60;;;;;;;;;;6128725;23;20174;-90
2022/01/08 10:04:43;;;;;;;4.10;3.20;;;;;;;;;;6129032;23;20179;-90
2022/01/08 10:07:18;;;;;;;3.40;2.70;;;;;;;;;;6128551;23;20175;-90
2022/01/08 10:10:02;;;;;;;4.20;2.73;;;;;;;;;;6145451;23;20203;-91
2022/01/08 10:12:40;;;;;;;4.50;2.70;;;;;;;;;;6138359;23;20171;-89
2022/01/08 10:21:15;;;;;;;2.63;2.43;;;;;;;;;;6125858;23;20186;-89
2022/01/08 10:26:55;;;;;;;3.70;2.70;;;;;;;;;;6096614;23;20189;-84
2022/01/08 10:29:44;;;;;;;5.00;2.77;;;;;;;;;;6131104;23;20203;-87
2022/01/08 10:35:56;;;;;;;3.83;2.60;;;;;;;;;;6010076;23;20253;-84
2022/01/08 10:38:28;;;;;;;3.50;2.70;;;;;;;;;;6011807;23;20197;-86
2022/01/08 10:44:22;;;;;;;4.13;2.80;;;;;;;;;;6009687;23;20180;-87
2022/01/08 10:46:59;;;;;;;2.70;2.40;;;;;;;;;;6011228;23;20178;-84
2022/01/08 10:49:43;;;;;;;2.80;2.50;;;;;;;;;;6010436;23;20249;-84
2022/01/08 10:52:11;;;;;;;4.70;2.37;;;;;;;;;;6015846;23;20185;-86
2022/01/08 10:55:06;;;;;;;4.20;2.40;;;;;;;;;;6012116;23;20178;-85
2022/01/08 10:57:41;;;;;;;3.83;2.40;;;;;;;;;;6020299;23;20194;-85
2022/01/08 11:00:11;;;;;;;3.80;2.20;;;;;;;;;;6012033;23;20242;-87
2022/01/08 11:02:58;;;;;;;3.93;2.37;;;;;;;;;;6011091;23;20182;-87
2022/01/08 11:05:30;;;;;;;3.67;2.33;;;;;;;;;;6009653;23;20178;-84
2022/01/08 11:11:03;;;;;;;4.63;2.03;;;;;;;;;;5927624;23;20192;-87
2022/01/08 11:13:40;;;;;;;4.17;2.07;;;;;;;;;;6135051;23;20174;-85
2022/01/08 11:16:10;;;;;;;3.83;2.63;;;;;;;;;;6133806;23;20167;-83
2022/01/08 11:18:43;;;;;;;5.77;4.50;;;;;;;;;;6133469;23;20191;-85
2022/01/08 11:21:15;;;;;;;3.53;2.23;;;;;;;;;;6131837;23;20203;-86
2022/01/08 11:41:40;;;;;;;3.07;1.87;;;;;;;;;;6051031;23;20236;-89
2022/01/08 11:46:58;;;;;;;4.30;1.97;;;;;;;;;;6082620;23;20255;-89
2022/01/08 11:59:39;;;;;;;;;;;;;;;;;;;;;
2022/01/08 13:26:23;;;;;;;;;;;;;;;;;;;;;
2022/01/08 14:57:30;;;;;;;6.43;2.60;;;;;;;;;;6219022;23;20239;-86
2022/01/08 15:15:18;;;;;;;3.03;1.77;;;;;;;;;;6098049;23;20265;-88
2022/01/08 15:23:32;;;;;;;2.00;1.80;;;;;;;;;;6220890;23;20201;-87
2022/01/08 15:29:13;;;;;;;3.30;1.90;;;;;;;;;;6189402;23;20209;-91
2022/01/08 15:32:11;;;;;;;2.20;2.00;;;;;;;;;;6189534;23;20165;-88
2022/01/08 15:40:15;;;;;;;4.03;2.27;;;;;;;;;;6215348;23;20192;-88
2022/01/08 15:45:44;;;;;;;5.87;2.17;;;;;;;;;;6214211;23;20165;-86
2022/01/08 15:48:32;;;;;;;2.40;1.80;;;;;;;;;;6216738;23;20216;-87
2022/01/08 15:51:20;;;;;;;;;;;;;;;;;;;;;
2022/01/08 15:53:48;;;;;;;4.20;2.20;;;;;;;;;;6218649;23;20165;-85
2022/01/08 15:56:27;;;;;;;4.20;3.30;;;;;;;;;;6217344;23;20176;-85
2022/01/08 15:59:01;;;;;;;3.43;2.10;;;;;;;;;;6217478;23;20189;-86
2022/01/08 16:01:39;;;;;;;4.27;1.97;;;;;;;;;;6217294;23;20169;-85
2022/01/08 16:04:12;;;;;;;2.73;1.70;;;;;;;;;;6219129;23;20165;-85
2022/01/08 16:06:44;;;;;;;2.20;2.00;;;;;;;;;;6220944;23;20574;-85
2022/01/08 16:09:13;;;;;;;2.93;2.23;;;;;;;;;;6219646;23;20280;-85
2022/01/08 16:11:43;;;;;;;3.13;2.27;;;;;;;;;;6219073;23;20700;-86
2022/01/08 16:14:14;;;;;;;2.70;2.27;;;;;;;;;;6218217;23;20177;-86
2022/01/08 16:16:41;;;;;;;3.73;2.30;;;;;;;;;;6218736;23;20170;-85
2022/01/08 16:19:08;;;;;;;3.27;2.27;;;;;;;;;;6217774;23;20192;-85
2022/01/08 16:21:40;;;;;;;4.27;2.10;;;;;;;;;;6223792;23;20243;-85
2022/01/08 16:24:18;;;;;;;2.87;1.90;;;;;;;;;;6223119;23;20229;-86
2022/01/08 16:27:00;;;;;;;2.87;1.90;;;;;;;;;;6215009;23;20173;-85
2022/01/08 16:29:28;;;;;;;2.53;2.10;;;;;;;;;;6218095;23;20188;-85
2022/01/08 16:32:02;;;;;;;1.77;1.67;;;;;;;;;;6220303;23;20177;-87
2022/01/08 16:34:41;;;;;;;2.80;1.87;;;;;;;;;;6219490;23;20165;-89
2022/01/08 16:43:30;;;;;;;2.77;2.10;;;;;;;;;;6202077;23;20185;-91
2022/01/08 17:06:09;;;;;;;;;;;;;;;;;;;;;
2022/01/08 17:18:05;;;;;;;2.67;2.20;;;;;;;;;;5953672;24;20199;-90
2022/01/08 17:24:09;;;;;;;2.80;1.90;;;;;;;;;;5906493;24;20200;-88
2022/01/08 17:35:08;;;;;;;2.43;2.20;;;;;;;;;;6216358;23;20181;-88
2022/01/08 17:37:39;;;;;;;2.57;1.73;;;;;;;;;;6221741;23;20197;-89
2022/01/08 17:40:11;;;;;;;2.00;1.87;;;;;;;;;;6219764;23;20173;-88
2022/01/08 17:42:41;;;;;;;2.00;1.80;;;;;;;;;;6215523;23;20189;-89
2022/01/08 17:45:10;;;;;;;2.50;2.30;;;;;;;;;;6216025;23;20169;-89
2022/01/08 17:47:45;;;;;;;4.87;3.97;;;;;;;;;;6214712;23;20197;-90
2022/01/08 17:50:23;;;;;;;4.90;3.10;;;;;;;;;;6215170;23;20185;-90
2022/01/08 17:52:50;;;;;;;3.03;2.73;;;;;;;;;;6214161;23;20169;-89
2022/01/08 17:55:24;;;;;;;4.00;2.30;;;;;;;;;;6215399;23;20176;-88
2022/01/08 17:58:15;;;;;;;1.97;1.80;;;;;;;;;;6199791;23;20282;-89
2022/01/08 18:00:48;;;;;;;2.23;2.07;;;;;;;;;;6155215;23;20173;-89
2022/01/08 18:06:15;;;;;;;3.13;2.17;;;;;;;;;;6184430;23;20185;-89
2022/01/08 18:08:55;;;;;;;3.43;2.30;;;;;;;;;;6185022;23;20252;-90
2022/01/08 18:11:26;;;;;;;1.97;1.87;;;;;;;;;;6184175;23;20194;-89
2022/01/08 18:14:04;;;;;;;2.40;2.03;;;;;;;;;;6184536;23;20173;-89
2022/01/08 18:16:41;;;;;;;2.50;2.03;;;;;;;;;;6183633;23;20170;-89
2022/01/08 18:19:11;;;;;;;2.10;1.90;;;;;;;;;;6185677;23;20208;-88
2022/01/08 18:21:55;;;;;;;2.00;1.80;;;;;;;;;;6186098;23;20178;-88
2022/01/08 18:24:31;;;;;;;2.47;1.80;;;;;;;;;;6186257;23;20229;-89
2022/01/08 18:27:01;;;;;;;1.80;1.70;;;;;;;;;;6187852;23;20228;-88
2022/01/08 18:29:28;;;;;;;2.83;2.10;;;;;;;;;;6186321;23;20202;-88
2022/01/08 18:32:02;;;;;;;3.67;1.97;;;;;;;;;;6185823;23;20209;-89
2022/01/08 18:34:43;;;;;;;4.30;2.50;;;;;;;;;;6185959;23;20230;-88
2022/01/08 18:37:28;;;;;;;3.97;2.63;;;;;;;;;;6187292;23;20170;-89
2022/01/08 18:39:58;;;;;;;2.37;2.10;;;;;;;;;;6185292;23;20165;-89
2022/01/08 18:42:30;;;;;;;2.47;2.10;;;;;;;;;;6184334;23;20288;-89
2022/01/08 18:45:12;;;;;;;2.67;2.23;;;;;;;;;;6184294;23;20200;-89
2022/01/08 18:47:49;;;;;;;3.17;2.27;;;;;;;;;;6186679;23;20204;-89
2022/01/08 18:50:36;;;;;;;2.67;2.17;;;;;;;;;;6188171;23;20190;-89
2022/01/08 18:59:18;;;;;;;3.87;2.00;;;;;;;;;;6145166;23;20262;-89
2022/01/08 19:01:51;;;;;;;3.63;1.90;;;;;;;;;;6188023;23;20706;-91
2022/01/08 19:07:32;;;;;;;3.13;1.50;;;;;;;;;;6152461;23;20193;-87
2022/01/08 19:10:27;;;;;;;;;;;;;;;;;;;;;
2022/01/08 19:13:17;;;;;;;1.67;1.57;;;;;;;;;;6123802;23;20189;-91
2022/01/08 19:16:00;;;;;;;2.20;1.70;;;;;;;;;;6061759;23;20179;-90
2022/01/08 19:18:36;;;;;;;3.10;1.80;;;;;;;;;;6126732;23;20198;-90
2022/01/08 19:21:17;;;;;;;1.60;1.50;;;;;;;;;;6126007;23;20254;-89
2022/01/08 19:26:27;;;;;;;1.70;1.60;;;;;;;;;;6126038;23;20254;-92
2022/01/08 19:29:13;;;;;;;3.40;2.70;;;;;;;;;;6128042;23;20201;-92
2022/01/08 19:34:35;;;;;;;1.67;1.57;;;;;;;;;;6114165;23;20271;-92
2022/01/08 19:37:05;;;;;;;2.53;1.80;;;;;;;;;;6128329;23;20242;-90
2022/01/08 19:39:35;;;;;;;3.23;1.90;;;;;;;;;;6128163;23;20195;-90
2022/01/08 19:42:10;;;;;;;2.40;2.00;;;;;;;;;;6125781;23;20246;-89
2022/01/08 19:44:46;;;;;;;2.30;1.87;;;;;;;;;;6128217;23;20186;-92
2022/01/08 19:47:24;;;;;;;2.50;1.50;;;;;;;;;;6128590;23;20175;-89
2022/01/08 19:50:36;;;;;;;1.87;1.60;;;;;;;;;;6135680;23;20171;-91
2022/01/08 19:55:54;;;;;;;1.70;1.60;;;;;;;;;;6125685;23;20179;-90
2022/01/08 19:58:27;;;;;;;2.13;1.80;;;;;;;;;;6146443;23;20213;-90
2022/01/08 20:01:08;;;;;;;1.87;1.70;;;;;;;;;;6146116;23;20223;-92
2022/01/08 20:06:31;;;;;;;3.33;2.10;;;;;;;;;;6078608;23;20223;-91
2022/01/08 20:09:01;;;;;;;3.63;2.30;;;;;;;;;;6127750;23;20274;-88
2022/01/08 20:14:36;;;;;;;3.93;1.77;;;;;;;;;;6008093;23;20245;-89
2022/01/08 20:17:06;;;;;;;2.27;2.07;;;;;;;;;;6127457;23;20206;-90
2022/01/08 20:22:25;;;;;;;2.53;2.10;;;;;;;;;;6121181;23;20179;-91
2022/01/08 20:31:15;;;;;;;;;;;;;;;;;;;;;
2022/01/08 21:20:22;;;;;;;2.13;1.93;;;;;;;;;;6131719;23;20175;-89
2022/01/08 21:22:59;;;;;;;1.87;1.77;;;;;;;;;;6130330;23;20167;-89
2022/01/08 21:25:34;;;;;;;2.23;1.77;;;;;;;;;;6130963;23;20163;-87
2022/01/08 21:31:02;;;;;;;2.30;2.10;;;;;;;;;;6138464;23;20195;-87
2022/01/08 21:45:34;;;;;;;2.77;2.43;;;;;;;;;;6069249;23;20192;-85
2022/01/08 21:48:40;;;;;;;3.77;2.60;;;;;;;;;;6069946;23;20173;-83
2022/01/08 21:51:47;;;;;;;2.90;2.40;;;;;;;;;;5956247;24;20706;-85
2022/01/08 22:01:04;;;;;;;2.90;2.50;;;;;;;;;;5901970;24;20212;-86
2022/01/08 22:03:41;;;;;;;4.77;3.10;;;;;;;;;;5908685;24;20223;-85
2022/01/08 22:06:30;;;;;;;4.07;3.07;;;;;;;;;;5925272;23;20180;-83
2022/01/08 22:09:30;;;;;;;3.20;2.90;;;;;;;;;;6048322;23;20197;-83
2022/01/08 22:12:02;;;;;;;4.27;3.20;;;;;;;;;;6047766;23;20201;-86
2022/01/08 22:14:33;;;;;;;2.93;2.53;;;;;;;;;;6049455;23;20279;-86
2022/01/08 22:17:09;;;;;;;3.07;2.80;;;;;;;;;;6049845;23;20169;-85
2022/01/08 22:20:00;;;;;;;4.33;2.93;;;;;;;;;;6050524;23;20203;-86